sensor_id;sensor_type;location;lat;lon;timestamp;pressure;altitude;pressure_sealevel;temperature;humidity
71043;BME280;58696;52.134;5.500;2023-01-05T00:01:11;101676.34;;;10.16;83.82
71043;BME280;58696;52.134;5.500;2023-01-05T00:03:41;101680.56;;;10.17;83.93
71043;BME280;58696;52.134;5.500;2023-01-05T00:06:15;101676.69;;;10.13;83.74
71043;BME280;58696;52.134;5.500;2023-01-05T00:08:43;101671.03;;;10.10;84.08
71043;BME280;58696;52.134;5.500;2023-01-05T00:11:14;101671.03;;;10.10;84.07
71043;BME280;58696;52.134;5.500;2023-01-05T00:14:02;101685.81;;;10.08;83.92
71043;BME280;58696;52.134;5.500;2023-01-05T00:16:50;101686.13;;;10.05;84.02
71043;BME280;58696;52.134;5.500;2023-01-05T00:19:35;101687.13;;;10.12;83.71
71043;BME280;58696;52.134;5.500;2023-01-05T00:22:24;101694.16;;;10.10;83.80
71043;BME280;58696;52.134;5.500;2023-01-05T00:25:11;101690.47;;;10.04;83.92
71043;BME280;58696;52.134;5.500;2023-01-05T00:27:40;101686.78;;;10.07;83.77
71043;BME280;58696;52.134;5.500;2023-01-05T00:30:12;101690.28;;;10.06;83.76
71043;BME280;58696;52.134;5.500;2023-01-05T00:32:40;101689.50;;;10.05;83.61
71043;BME280;58696;52.134;5.500;2023-01-05T00:35:13;101699.47;;;10.08;83.55
71043;BME280;58696;52.134;5.500;2023-01-05T00:37:40;101687.13;;;10.12;83.43
71043;BME280;58696;52.134;5.500;2023-01-05T00:40:18;101681.00;;;10.13;83.03
71043;BME280;58696;52.134;5.500;2023-01-05T00:42:48;101683.25;;;10.16;82.85
71043;BME280;58696;52.134;5.500;2023-01-05T00:45:16;101693.84;;;10.13;83.01
71043;BME280;58696;52.134;5.500;2023-01-05T00:47:44;101702.53;;;10.12;82.79
71043;BME280;58696;52.134;5.500;2023-01-05T00:50:15;101694.03;;;10.11;82.89
71043;BME280;58696;52.134;5.500;2023-01-05T00:52:43;101693.84;;;10.13;82.97
71043;BME280;58696;52.134;5.500;2023-01-05T00:55:10;101701.09;;;10.17;82.86
71043;BME280;58696;52.134;5.500;2023-01-05T00:57:40;101712.00;;;10.19;82.65
71043;BME280;58696;52.134;5.500;2023-01-05T01:00:10;101719.28;;;10.24;82.60
71043;BME280;58696;52.134;5.500;2023-01-05T01:02:38;101715.75;;;10.25;82.60
71043;BME280;58696;52.134;5.500;2023-01-05T01:05:07;101721.69;;;10.25;82.34
71043;BME280;58696;52.134;5.500;2023-01-05T01:07:42;101720.88;;;10.25;82.51
71043;BME280;58696;52.134;5.500;2023-01-05T01:10:10;101719.78;;;10.27;82.47
71043;BME280;58696;52.134;5.500;2023-01-05T01:12:37;101718.81;;;10.29;82.28
71043;BME280;58696;52.134;5.500;2023-01-05T01:15:05;101718.47;;;10.32;82.19
71043;BME280;58696;52.134;5.500;2023-01-05T01:17:35;101714.81;;;10.34;82.02
71043;BME280;58696;52.134;5.500;2023-01-05T01:20:02;101709.50;;;10.36;82.10
71043;BME280;58696;52.134;5.500;2023-01-05T01:22:31;101716.56;;;10.34;82.09
71043;BME280;58696;52.134;5.500;2023-01-05T01:24:59;101723.63;;;10.32;82.17
71043;BME280;58696;52.134;5.500;2023-01-05T01:27:29;101733.88;;;10.32;81.98
71043;BME280;58696;52.134;5.500;2023-01-05T01:29:55;101728.44;;;10.35;82.09
71043;BME280;58696;52.134;5.500;2023-01-05T01:32:23;101729.09;;;10.37;81.91
71043;BME280;58696;52.134;5.500;2023-01-05T01:34:52;101728.13;;;10.38;81.55
71043;BME280;58696;52.134;5.500;2023-01-05T01:37:20;101734.72;;;10.40;81.38
71043;BME280;58696;52.134;5.500;2023-01-05T01:39:47;101746.09;;;10.38;81.52
71043;BME280;58696;52.134;5.500;2023-01-05T01:42:15;101741.94;;;10.37;81.78
71043;BME280;58696;52.134;5.500;2023-01-05T01:47:27;101747.41;;;10.42;81.53
71043;BME280;58696;52.134;5.500;2023-01-05T01:50:03;101750.94;;;10.41;81.66
71043;BME280;58696;52.134;5.500;2023-01-05T01:52:32;101755.78;;;10.44;81.67
71043;BME280;58696;52.134;5.500;2023-01-05T01:55:05;101755.78;;;10.44;81.90
71043;BME280;58696;52.134;5.500;2023-01-05T01:57:33;101766.06;;;10.44;81.81
71043;BME280;58696;52.134;5.500;2023-01-05T02:00:03;101769.25;;;10.46;81.80
71043;BME280;58696;52.134;5.500;2023-01-05T02:02:31;101764.91;;;10.46;82.07
71043;BME280;58696;52.134;5.500;2023-01-05T02:05:02;101762.19;;;10.48;82.00
71043;BME280;58696;52.134;5.500;2023-01-05T02:07:35;101769.91;;;10.48;82.17
71043;BME280;58696;52.134;5.500;2023-01-05T02:10:03;101780.19;;;10.48;82.14
71043;BME280;58696;52.134;5.500;2023-01-05T02:23:44;101780.34;;;10.46;82.53
71043;BME280;58696;52.134;5.500;2023-01-05T02:26:14;101772.13;;;10.43;82.58
71043;BME280;58696;52.134;5.500;2023-01-05T02:28:56;101779.22;;;10.41;82.71
71043;BME280;58696;52.134;5.500;2023-01-05T02:31:53;101773.09;;;10.42;82.81
71043;BME280;58696;52.134;5.500;2023-01-05T02:37:14;101777.09;;;10.36;83.27
71043;BME280;58696;52.134;5.500;2023-01-05T02:40:14;101784.66;;;10.38;83.36
71043;BME280;58696;52.134;5.500;2023-01-05T02:42:39;101783.38;;;10.42;83.12
71043;BME280;58696;52.134;5.500;2023-01-05T02:45:08;101786.91;;;10.41;83.43
71043;BME280;58696;52.134;5.500;2023-01-05T02:47:41;101784.50;;;10.39;83.42
71043;BME280;58696;52.134;5.500;2023-01-05T02:50:31;101784.34;;;10.41;83.50
71043;BME280;58696;52.134;5.500;2023-01-05T02:53:10;101790.13;;;10.43;83.52
71043;BME280;58696;52.134;5.500;2023-01-05T02:55:46;101790.91;;;10.43;83.50
71043;BME280;58696;52.134;5.500;2023-01-05T02:58:26;101786.63;;;10.44;83.47
71043;BME280;58696;52.134;5.500;2023-01-05T03:01:02;101793.34;;;10.45;83.65
71043;BME280;58696;52.134;5.500;2023-01-05T03:03:42;101797.81;;;10.43;83.70
71043;BME280;58696;52.134;5.500;2023-01-05T03:06:15;101791.09;;;10.42;83.70
71043;BME280;58696;52.134;5.500;2023-01-05T03:08:51;101786.63;;;10.44;83.63
71043;BME280;58696;52.134;5.500;2023-01-05T03:11:19;101784.03;;;10.44;83.71
71043;BME280;58696;52.134;5.500;2023-01-05T03:14:21;101794.47;;;10.42;83.91
71043;BME280;58696;52.134;5.500;2023-01-05T03:17:00;101790.28;;;10.41;83.81
71043;BME280;58696;52.134;5.500;2023-01-05T03:19:27;101783.72;;;10.39;83.89
71043;BME280;58696;52.134;5.500;2023-01-05T03:22:10;101793.03;;;10.40;84.02
71043;BME280;58696;52.134;5.500;2023-01-05T03:24:56;101784.34;;;10.41;83.69
71043;BME280;58696;52.134;5.500;2023-01-05T03:27:44;101788.84;;;10.39;83.84
71043;BME280;58696;52.134;5.500;2023-01-05T03:30:39;101791.72;;;10.36;84.12
71043;BME280;58696;52.134;5.500;2023-01-05T03:33:36;101791.56;;;10.37;83.88
71043;BME280;58696;52.134;5.500;2023-01-05T03:36:28;101794.00;;;10.39;83.86
71043;BME280;58696;52.134;5.500;2023-01-05T03:39:00;101806.84;;;10.39;83.81
71043;BME280;58696;52.134;5.500;2023-01-05T03:41:28;101794.28;;;10.36;83.91
71043;BME280;58696;52.134;5.500;2023-01-05T03:43:56;101796.84;;;10.36;84.10
71043;BME280;58696;52.134;5.500;2023-01-05T03:46:22;101799.44;;;10.36;83.89
71043;BME280;58696;52.134;5.500;2023-01-05T03:48:53;101800.41;;;10.35;83.97
71043;BME280;58696;52.134;5.500;2023-01-05T03:51:24;101794.47;;;10.34;84.14
71043;BME280;58696;52.134;5.500;2023-01-05T03:53:55;101800.06;;;10.30;84.28
71043;BME280;58696;52.134;5.500;2023-01-05T03:56:23;101804.41;;;10.29;84.26
71043;BME280;58696;52.134;5.500;2023-01-05T03:58:54;101810.63;;;10.26;84.39
71043;BME280;58696;52.134;5.500;2023-01-05T04:01:20;101802.00;;;10.27;84.56
71043;BME280;58696;52.134;5.500;2023-01-05T04:03:48;101802.94;;;10.26;84.48
71043;BME280;58696;52.134;5.500;2023-01-05T04:06:16;101810.78;;;10.25;84.46
71043;BME280;58696;52.134;5.500;2023-01-05T04:08:42;101803.88;;;10.25;84.52
71043;BME280;58696;52.134;5.500;2023-01-05T04:11:21;101808.22;;;10.25;84.62
71043;BME280;58696;52.134;5.500;2023-01-05T04:13:49;101809.31;;;10.22;84.71
71043;BME280;58696;52.134;5.500;2023-01-05T04:16:18;101807.84;;;10.20;84.71
71043;BME280;58696;52.134;5.500;2023-01-05T04:18:48;101808.50;;;10.22;84.74
71043;BME280;58696;52.134;5.500;2023-01-05T04:21:16;101813.53;;;10.23;84.72
71043;BME280;58696;52.134;5.500;2023-01-05T04:23:43;101811.91;;;10.22;84.82
71043;BME280;58696;52.134;5.500;2023-01-05T04:26:10;101812.56;;;10.24;84.85
71043;BME280;58696;52.134;5.500;2023-01-05T04:28:40;101812.56;;;10.24;84.82
71043;BME280;58696;52.134;5.500;2023-01-05T04:31:06;101814.34;;;10.24;84.94
71043;BME280;58696;52.134;5.500;2023-01-05T04:33:34;101805.81;;;10.23;84.85
71043;BME280;58696;52.134;5.500;2023-01-05T04:36:01;101808.50;;;10.22;84.86
71043;BME280;58696;52.134;5.500;2023-01-05T04:38:28;101805.94;;;10.22;84.92
71043;BME280;58696;52.134;5.500;2023-01-05T04:40:55;101811.06;;;10.22;84.98
71043;BME280;58696;52.134;5.500;2023-01-05T04:43:22;101821.03;;;10.17;85.09
71043;BME280;58696;52.134;5.500;2023-01-05T04:45:49;101820.69;;;10.20;85.08
71043;BME280;58696;52.134;5.500;2023-01-05T04:48:17;101831.13;;;10.18;85.16
71043;BME280;58696;52.134;5.500;2023-01-05T04:50:51;101826.63;;;10.20;84.92
71043;BME280;58696;52.134;5.500;2023-01-05T04:53:17;101824.88;;;10.21;85.00
71043;BME280;58696;52.134;5.500;2023-01-05T04:55:44;101833.38;;;10.21;85.15
71043;BME280;58696;52.134;5.500;2023-01-05T04:58:13;101830.97;;;10.20;85.11
71043;BME280;58696;52.134;5.500;2023-01-05T05:00:42;101832.31;;;10.24;85.10
71043;BME280;58696;52.134;5.500;2023-01-05T05:03:10;101837.59;;;10.22;84.95
71043;BME280;58696;52.134;5.500;2023-01-05T05:05:39;101829.03;;;10.22;85.01
71043;BME280;58696;52.134;5.500;2023-01-05T05:08:06;101835.00;;;10.22;85.02
71043;BME280;58696;52.134;5.500;2023-01-05T05:10:33;101829.22;;;10.20;85.15
71043;BME280;58696;52.134;5.500;2023-01-05T05:13:03;101838.03;;;10.18;85.15
71043;BME280;58696;52.134;5.500;2023-01-05T05:15:32;101843.81;;;10.20;84.95
71043;BME280;58696;52.134;5.500;2023-01-05T05:18:01;101843.31;;;10.16;85.21
71043;BME280;58696;52.134;5.500;2023-01-05T05:20:35;101847.00;;;10.14;85.20
71043;BME280;58696;52.134;5.500;2023-01-05T05:23:02;101846.38;;;10.12;85.32
71043;BME280;58696;52.134;5.500;2023-01-05T05:25:33;101847.31;;;10.11;85.44
71043;BME280;58696;52.134;5.500;2023-01-05T05:27:59;101853.09;;;10.13;85.34
71043;BME280;58696;52.134;5.500;2023-01-05T05:30:32;101859.03;;;10.13;85.38
71043;BME280;58696;52.134;5.500;2023-01-05T05:32:59;101858.09;;;10.14;85.40
71043;BME280;58696;52.134;5.500;2023-01-05T05:35:28;101863.38;;;10.13;85.48
71043;BME280;58696;52.134;5.500;2023-01-05T05:37:55;101864.34;;;10.12;85.53
71043;BME280;58696;52.134;5.500;2023-01-05T05:40:23;101873.81;;;10.11;85.70
71043;BME280;58696;52.134;5.500;2023-01-05T05:42:51;101866.41;;;10.08;86.20
71043;BME280;58696;52.134;5.500;2023-01-05T05:45:19;101875.88;;;10.08;85.79
71043;BME280;58696;52.134;5.500;2023-01-05T05:47:46;101872.34;;;10.09;85.97
71043;BME280;58696;52.134;5.500;2023-01-05T05:50:13;101881.81;;;10.08;85.94
71043;BME280;58696;52.134;5.500;2023-01-05T05:52:40;101879.53;;;10.05;86.09
71043;BME280;58696;52.134;5.500;2023-01-05T05:55:09;101882.09;;;10.05;85.91
71043;BME280;58696;52.134;5.500;2023-01-05T05:57:35;101883.75;;;10.06;85.90
71043;BME280;58696;52.134;5.500;2023-01-05T06:00:03;101892.25;;;10.07;85.70
71043;BME280;58696;52.134;5.500;2023-01-05T06:02:30;101892.25;;;10.07;85.91
71043;BME280;58696;52.134;5.500;2023-01-05T06:04:57;101901.72;;;10.06;85.96
71043;BME280;58696;52.134;5.500;2023-01-05T06:07:25;101892.72;;;10.10;85.89
71043;BME280;58696;52.134;5.500;2023-01-05T06:09:52;101908.16;;;10.10;86.01
71043;BME280;58696;52.134;5.500;2023-01-05T06:12:26;101917.63;;;10.10;86.07
71043;BME280;58696;52.134;5.500;2023-01-05T06:14:53;101908.00;;;10.12;85.87
71043;BME280;58696;52.134;5.500;2023-01-05T06:17:20;101917.47;;;10.11;85.81
71043;BME280;58696;52.134;5.500;2023-01-05T06:19:48;101914.25;;;10.09;85.98
71043;BME280;58696;52.134;5.500;2023-01-05T06:22:18;101919.38;;;10.09;85.98
71043;BME280;58696;52.134;5.500;2023-01-05T06:24:44;101922.75;;;10.10;86.07
71043;BME280;58696;52.134;5.500;2023-01-05T06:27:11;101915.03;;;10.10;86.17
71043;BME280;58696;52.134;5.500;2023-01-05T06:29:38;101926.94;;;10.11;86.21
71043;BME280;58696;52.134;5.500;2023-01-05T06:32:07;101927.88;;;10.10;86.28
71043;BME280;58696;52.134;5.500;2023-01-05T06:34:34;101926.13;;;10.10;86.26
71043;BME280;58696;52.134;5.500;2023-01-05T06:37:01;101926.00;;;10.12;86.24
71043;BME280;58696;52.134;5.500;2023-01-05T06:39:29;101935.16;;;10.14;86.39
71043;BME280;58696;52.134;5.500;2023-01-05T06:41:56;101943.81;;;10.13;86.04
71043;BME280;58696;52.134;5.500;2023-01-05T06:44:26;101946.66;;;10.10;86.16
71043;BME280;58696;52.134;5.500;2023-01-05T06:46:59;101948.31;;;10.11;86.31
71043;BME280;58696;52.134;5.500;2023-01-05T06:49:25;101946.53;;;10.12;86.44
71043;BME280;58696;52.134;5.500;2023-01-05T06:51:53;101951.81;;;10.10;86.58
71043;BME280;58696;52.134;5.500;2023-01-05T06:54:23;101952.59;;;10.11;86.46
71043;BME280;58696;52.134;5.500;2023-01-05T06:56:50;101956.00;;;10.11;86.46
71043;BME280;58696;52.134;5.500;2023-01-05T06:59:17;101959.22;;;10.13;86.63
71043;BME280;58696;52.134;5.500;2023-01-05T07:01:44;101961.00;;;10.13;86.45
71043;BME280;58696;52.134;5.500;2023-01-05T07:04:10;101964.38;;;10.13;86.36
71043;BME280;58696;52.134;5.500;2023-01-05T07:06:40;101970.47;;;10.12;86.47
71043;BME280;58696;52.134;5.500;2023-01-05T07:09:07;101973.84;;;10.13;86.49
71043;BME280;58696;52.134;5.500;2023-01-05T07:11:33;101980.75;;;10.12;86.37
71043;BME280;58696;52.134;5.500;2023-01-05T07:14:01;101975.59;;;10.12;86.27
71043;BME280;58696;52.134;5.500;2023-01-05T07:16:27;101979.94;;;10.12;86.32
71043;BME280;58696;52.134;5.500;2023-01-05T07:18:54;101973.03;;;10.12;86.16
71043;BME280;58696;52.134;5.500;2023-01-05T07:21:21;101984.09;;;10.13;86.19
71043;BME280;58696;52.134;5.500;2023-01-05T07:23:48;101976.41;;;10.13;86.25
71043;BME280;58696;52.134;5.500;2023-01-05T07:26:16;101978.28;;;10.11;86.18
71043;BME280;58696;52.134;5.500;2023-01-05T07:28:43;101986.16;;;10.09;86.28
71043;BME280;58696;52.134;5.500;2023-01-05T07:31:09;101994.81;;;10.08;86.32
71043;BME280;58696;52.134;5.500;2023-01-05T07:33:37;101998.19;;;10.09;86.16
71043;BME280;58696;52.134;5.500;2023-01-05T07:36:06;101995.78;;;10.07;86.09
71043;BME280;58696;52.134;5.500;2023-01-05T07:38:35;101994.97;;;10.07;86.23
71043;BME280;58696;52.134;5.500;2023-01-05T07:41:05;101992.53;;;10.05;86.18
71043;BME280;58696;52.134;5.500;2023-01-05T07:43:33;101996.06;;;10.04;86.30
71043;BME280;58696;52.134;5.500;2023-01-05T07:46:02;102003.94;;;10.02;86.24
71043;BME280;58696;52.134;5.500;2023-01-05T07:48:29;101999.09;;;9.99;86.40
71043;BME280;58696;52.134;5.500;2023-01-05T07:51:01;102004.22;;;9.99;86.26
71043;BME280;58696;52.134;5.500;2023-01-05T07:53:33;102000.06;;;9.98;86.38
71043;BME280;58696;52.134;5.500;2023-01-05T07:56:11;102003.41;;;9.99;86.24
71043;BME280;58696;52.134;5.500;2023-01-05T07:58:39;102009.69;;;9.96;86.39
71043;BME280;58696;52.134;5.500;2023-01-05T08:01:10;102014.13;;;9.94;86.41
71043;BME280;58696;52.134;5.500;2023-01-05T08:03:37;102002.41;;;9.92;86.46
71043;BME280;58696;52.134;5.500;2023-01-05T08:06:06;102009.75;;;9.87;86.30
71043;BME280;58696;52.134;5.500;2023-01-05T08:08:35;102016.81;;;9.85;86.48
71043;BME280;58696;52.134;5.500;2023-01-05T08:11:08;102018.69;;;9.83;86.40
71043;BME280;58696;52.134;5.500;2023-01-05T08:13:36;102017.72;;;9.84;86.52
71043;BME280;58696;52.134;5.500;2023-01-05T08:16:24;102025.97;;;9.87;86.34
71043;BME280;58696;52.134;5.500;2023-01-05T08:18:53;102038.66;;;9.89;86.34
71043;BME280;58696;52.134;5.500;2023-01-05T08:21:19;102036.88;;;9.89;86.25
71043;BME280;58696;52.134;5.500;2023-01-05T08:23:53;102031.75;;;9.89;86.31
71043;BME280;58696;52.134;5.500;2023-01-05T08:26:22;102047.16;;;9.89;86.15
71043;BME280;58696;52.134;5.500;2023-01-05T08:28:56;102045.69;;;9.87;86.29
71043;BME280;58696;52.134;5.500;2023-01-05T08:31:26;102056.78;;;9.87;86.31
71043;BME280;58696;52.134;5.500;2023-01-05T08:33:54;102061.91;;;9.87;86.31
71043;BME280;58696;52.134;5.500;2023-01-05T08:36:23;102060.00;;;9.89;86.27
71043;BME280;58696;52.134;5.500;2023-01-05T08:38:53;102072.81;;;9.89;86.25
71043;BME280;58696;52.134;5.500;2023-01-05T08:41:25;102071.91;;;9.90;86.23
71043;BME280;58696;52.134;5.500;2023-01-05T08:43:57;102066.75;;;9.90;86.07
71043;BME280;58696;52.134;5.500;2023-01-05T08:46:28;102069.69;;;9.95;86.01
71043;BME280;58696;52.134;5.500;2023-01-05T08:49:03;102073.06;;;9.96;85.94
71043;BME280;58696;52.134;5.500;2023-01-05T08:51:31;102078.84;;;9.98;85.99
71043;BME280;58696;52.134;5.500;2023-01-05T08:53:58;102076.94;;;10.00;85.87
71043;BME280;58696;52.134;5.500;2023-01-05T08:56:27;102079.50;;;10.00;85.88
71043;BME280;58696;52.134;5.500;2023-01-05T08:59:03;102093.03;;;10.02;85.78
71043;BME280;58696;52.134;5.500;2023-01-05T09:01:31;102102.19;;;10.05;85.72
71043;BME280;58696;52.134;5.500;2023-01-05T09:03:58;102098.81;;;10.04;85.77
71043;BME280;58696;52.134;5.500;2023-01-05T09:06:26;102104.75;;;10.05;85.85
71043;BME280;58696;52.134;5.500;2023-01-05T09:08:55;102107.19;;;10.06;85.61
71043;BME280;58696;52.134;5.500;2023-01-05T09:11:23;102112.97;;;10.08;85.78
71043;BME280;58696;52.134;5.500;2023-01-05T09:13:58;102114.75;;;10.08;85.75
71043;BME280;58696;52.134;5.500;2023-01-05T09:16:29;102109.28;;;10.11;85.89
71043;BME280;58696;52.134;5.500;2023-01-05T09:19:16;102113.50;;;10.12;85.85
71043;BME280;58696;52.134;5.500;2023-01-05T09:21:43;102115.13;;;10.13;85.69
71043;BME280;58696;52.134;5.500;2023-01-05T09:24:12;102110.94;;;10.12;85.92
71043;BME280;58696;52.134;5.500;2023-01-05T09:26:40;102118.31;;;10.15;86.01
71043;BME280;58696;52.134;5.500;2023-01-05T09:29:10;102113.03;;;10.16;85.74
71043;BME280;58696;52.134;5.500;2023-01-05T09:31:43;102127.53;;;10.17;85.77
71043;BME280;58696;52.134;5.500;2023-01-05T09:34:12;102125.75;;;10.18;85.86
71043;BME280;58696;52.134;5.500;2023-01-05T09:36:39;102135.72;;;10.21;86.03
71043;BME280;58696;52.134;5.500;2023-01-05T09:39:06;102139.66;;;10.25;85.82
71043;BME280;58696;52.134;5.500;2023-01-05T09:44:06;102133.41;;;10.27;85.55
71043;BME280;58696;52.134;5.500;2023-01-05T09:46:37;102137.59;;;10.29;85.64
71043;BME280;58696;52.134;5.500;2023-01-05T09:49:09;102146.75;;;10.31;85.63
71043;BME280;58696;52.134;5.500;2023-01-05T09:51:42;102140.81;;;10.31;85.42
71043;BME280;58696;52.134;5.500;2023-01-05T09:54:15;102147.56;;;10.32;85.40
71043;BME280;58696;52.134;5.500;2023-01-05T09:56:45;102148.25;;;10.34;85.29
71043;BME280;58696;52.134;5.500;2023-01-05T09:59:37;102150.66;;;10.35;85.54
71043;BME280;58696;52.134;5.500;2023-01-05T10:02:16;102150.34;;;10.38;85.54
71043;BME280;58696;52.134;5.500;2023-01-05T10:04:49;102151.19;;;10.39;85.45
71043;BME280;58696;52.134;5.500;2023-01-05T10:07:30;102152.63;;;10.41;85.28
71043;BME280;58696;52.134;5.500;2023-01-05T10:10:06;102161.16;;;10.42;85.29
71043;BME280;58696;52.134;5.500;2023-01-05T10:12:47;102165.19;;;10.44;85.26
71043;BME280;58696;52.134;5.500;2023-01-05T10:15:37;102166.00;;;10.45;85.14
71043;BME280;58696;52.134;5.500;2023-01-05T10:18:14;102166.00;;;10.45;84.97
71043;BME280;58696;52.134;5.500;2023-01-05T10:26:33;102172.31;;;10.50;84.85
71043;BME280;58696;52.134;5.500;2023-01-05T10:32:25;102184.72;;;10.55;84.88
71043;BME280;58696;52.134;5.500;2023-01-05T10:34:58;102181.31;;;10.54;84.63
71043;BME280;58696;52.134;5.500;2023-01-05T10:40:30;102198.75;;;10.61;84.50
71043;BME280;58696;52.134;5.500;2023-01-05T10:45:53;102205.50;;;10.62;84.32
71043;BME280;58696;52.134;5.500;2023-01-05T10:48:41;102188.59;;;10.59;84.37
71043;BME280;58696;52.134;5.500;2023-01-05T10:51:08;102180.88;;;10.59;84.16
71043;BME280;58696;52.134;5.500;2023-01-05T10:53:38;102177.66;;;10.57;84.08
71043;BME280;58696;52.134;5.500;2023-01-05T10:56:23;102176.53;;;10.60;84.08
71043;BME280;58696;52.134;5.500;2023-01-05T10:59:11;102172.88;;;10.62;84.16
71043;BME280;58696;52.134;5.500;2023-01-05T11:01:42;102176.09;;;10.64;84.35
71043;BME280;58696;52.134;5.500;2023-01-05T11:04:16;102176.09;;;10.64;84.06
71043;BME280;58696;52.134;5.500;2023-01-05T11:07:02;102173.25;;;10.67;83.82
71043;BME280;58696;52.134;5.500;2023-01-05T11:09:30;102172.00;;;10.71;83.78
71043;BME280;58696;52.134;5.500;2023-01-05T11:11:58;102172.81;;;10.72;83.87
71043;BME280;58696;52.134;5.500;2023-01-05T11:14:37;102175.88;;;10.75;83.75
71043;BME280;58696;52.134;5.500;2023-01-05T11:17:06;102177.34;;;10.78;83.52
71043;BME280;58696;52.134;5.500;2023-01-05T11:19:47;102178.00;;;10.80;83.40
71043;BME280;58696;52.134;5.500;2023-01-05T11:22:38;102174.31;;;10.83;83.22
71043;BME280;58696;52.134;5.500;2023-01-05T11:25:29;102185.53;;;10.82;82.88
71043;BME280;58696;52.134;5.500;2023-01-05T11:28:16;102181.72;;;10.86;83.13
71043;BME280;58696;52.134;5.500;2023-01-05T11:31:02;102181.72;;;10.86;83.01
71043;BME280;58696;52.134;5.500;2023-01-05T11:33:31;102176.41;;;10.87;82.86
71043;BME280;58696;52.134;5.500;2023-01-05T11:36:00;102177.75;;;10.91;82.70
71043;BME280;58696;52.134;5.500;2023-01-05T11:38:30;102171.84;;;10.99;82.72
71043;BME280;58696;52.134;5.500;2023-01-05T11:40:58;102173.03;;;11.04;82.54
71043;BME280;58696;52.134;5.500;2023-01-05T11:43:30;102174.53;;;11.15;82.00
71043;BME280;58696;52.134;5.500;2023-01-05T11:46:00;102172.94;;;11.22;82.07
71043;BME280;58696;52.134;5.500;2023-01-05T11:48:31;102178.78;;;11.32;81.75
71043;BME280;58696;52.134;5.500;2023-01-05T11:51:00;102175.16;;;11.43;81.42
71043;BME280;58696;52.134;5.500;2023-01-05T11:53:38;102158.44;;;11.47;81.10
71043;BME280;58696;52.134;5.500;2023-01-05T11:56:22;102167.78;;;11.56;80.93
71043;BME280;58696;52.134;5.500;2023-01-05T11:58:52;102164.44;;;11.64;81.00
71043;BME280;58696;52.134;5.500;2023-01-05T12:04:20;102159.34;;;11.80;79.93
71043;BME280;58696;52.134;5.500;2023-01-05T12:10:00;102168.53;;;11.83;79.48
71043;BME280;58696;52.134;5.500;2023-01-05T12:21:13;102167.19;;;11.71;79.88
71043;BME280;58696;52.134;5.500;2023-01-05T12:27:28;102165.94;;;11.75;79.75
71043;BME280;58696;52.134;5.500;2023-01-05T12:36:54;102153.81;;;11.59;79.93
71043;BME280;58696;52.134;5.500;2023-01-05T12:47:48;102151.81;;;11.87;79.24
71043;BME280;58696;52.134;5.500;2023-01-05T12:53:56;102158.50;;;11.64;79.40
71043;BME280;58696;52.134;5.500;2023-01-05T12:56:20;102156.03;;;11.54;79.32
71043;BME280;58696;52.134;5.500;2023-01-05T12:59:20;102155.81;;;11.39;79.38
71043;BME280;58696;52.134;5.500;2023-01-05T13:02:01;102151.44;;;11.31;79.58
71043;BME280;58696;52.134;5.500;2023-01-05T13:07:20;102160.63;;;11.08;79.84
71043;BME280;58696;52.134;5.500;2023-01-05T13:09:55;102163.03;;;11.01;80.01
71043;BME280;58696;52.134;5.500;2023-01-05T13:12:29;102160.25;;;10.95;79.97
71043;BME280;58696;52.134;5.500;2023-01-05T13:15:12;102167.81;;;10.96;80.51
71043;BME280;58696;52.134;5.500;2023-01-05T13:17:45;102161.44;;;11.09;80.44
71043;BME280;58696;52.134;5.500;2023-01-05T13:20:33;102158.41;;;11.13;80.22
71043;BME280;58696;52.134;5.500;2023-01-05T13:23:19;102157.63;;;11.13;80.20
71043;BME280;58696;52.134;5.500;2023-01-05T13:25:54;102147.66;;;11.10;80.29
71043;BME280;58696;52.134;5.500;2023-01-05T13:28:23;102153.88;;;11.07;80.51
71043;BME280;58696;52.134;5.500;2023-01-05T13:48:36;102157.72;;;11.03;80.93
71043;BME280;58696;52.134;5.500;2023-01-05T13:53:55;102155.66;;;11.06;80.91
71043;BME280;58696;52.134;5.500;2023-01-05T13:56:28;102157.13;;;11.09;80.87
71043;BME280;58696;52.134;5.500;2023-01-05T13:59:06;102147.47;;;11.11;81.04
71043;BME280;58696;52.134;5.500;2023-01-05T14:01:50;102152.97;;;11.16;81.21
71043;BME280;58696;52.134;5.500;2023-01-05T14:04:27;102147.50;;;11.19;81.28
71043;BME280;58696;52.134;5.500;2023-01-05T14:07:01;102155.09;;;11.21;81.64
71043;BME280;58696;52.134;5.500;2023-01-05T14:09:34;102151.84;;;11.19;81.76
71043;BME280;58696;52.134;5.500;2023-01-05T14:18:03;102144.41;;;11.07;82.50
71043;BME280;58696;52.134;5.500;2023-01-05T14:26:02;102147.22;;;10.96;82.96
71043;BME280;58696;52.134;5.500;2023-01-05T14:33:48;102151.38;;;10.89;83.43
71043;BME280;58696;52.134;5.500;2023-01-05T14:39:23;102150.50;;;10.80;83.92
71043;BME280;58696;52.134;5.500;2023-01-05T14:42:16;102149.50;;;10.73;84.13
71043;BME280;58696;52.134;5.500;2023-01-05T14:44:57;102142.41;;;10.67;84.30
71043;BME280;58696;52.134;5.500;2023-01-05T14:47:40;102152.00;;;10.65;84.73
71043;BME280;58696;52.134;5.500;2023-01-05T14:56:31;102143.59;;;10.55;85.36
71043;BME280;58696;52.134;5.500;2023-01-05T15:01:49;102144.03;;;10.50;85.82
71043;BME280;58696;52.134;5.500;2023-01-05T15:06:53;102151.22;;;10.47;85.61
71043;BME280;58696;52.134;5.500;2023-01-05T15:23:42;102153.50;;;10.32;87.25
71043;BME280;58696;52.134;5.500;2023-01-05T15:31:37;102157.88;;;10.22;87.87
71043;BME280;58696;52.134;5.500;2023-01-05T15:34:34;102154.66;;;10.20;88.15
71043;BME280;58696;52.134;5.500;2023-01-05T15:37:12;102152.25;;;10.18;88.37
71043;BME280;58696;52.134;5.500;2023-01-05T15:39:49;102152.41;;;10.17;88.37
71043;BME280;58696;52.134;5.500;2023-01-05T15:42:20;102152.41;;;10.17;88.47